sensor_id;sensor_type;location;lat;lon;timestamp;temperature;humidity
20091;DHT22;10205;49.678;6.560;2023-08-06T00:01:56;21.50;65.30
20091;DHT22;10205;49.678;6.560;2023-08-06T00:04:24;21.50;65.40
20091;DHT22;10205;49.678;6.560;2023-08-06T00:06:51;21.40;65.20
20091;DHT22;10205;49.678;6.560;2023-08-06T00:09:18;21.40;65.30
20091;DHT22;10205;49.678;6.560;2023-08-06T00:11:46;21.40;65.50
20091;DHT22;10205;49.678;6.560;2023-08-06T00:14:14;21.40;65.70
20091;DHT22;10205;49.678;6.560;2023-08-06T00:16:43;21.40;65.70
20091;DHT22;10205;49.678;6.560;2023-08-06T00:19:12;21.40;65.90
20091;DHT22;10205;49.678;6.560;2023-08-06T00:21:40;21.30;65.90
20091;DHT22;10205;49.678;6.560;2023-08-06T00:24:07;21.30;65.90
20091;DHT22;10205;49.678;6.560;2023-08-06T00:26:35;21.30;65.80
20091;DHT22;10205;49.678;6.560;2023-08-06T00:29:03;21.30;65.90
20091;DHT22;10205;49.678;6.560;2023-08-06T00:31:30;21.20;65.90
20091;DHT22;10205;49.678;6.560;2023-08-06T00:33:58;21.20;66.10
20091;DHT22;10205;49.678;6.560;2023-08-06T00:36:27;21.20;65.90
20091;DHT22;10205;49.678;6.560;2023-08-06T00:38:54;21.10;66.10
20091;DHT22;10205;49.678;6.560;2023-08-06T00:41:22;21.10;66.20
20091;DHT22;10205;49.678;6.560;2023-08-06T00:43:50;21.10;66.30
20091;DHT22;10205;49.678;6.560;2023-08-06T00:46:18;21.00;66.50
20091;DHT22;10205;49.678;6.560;2023-08-06T00:48:48;21.00;66.50
20091;DHT22;10205;49.678;6.560;2023-08-06T00:51:17;21.00;66.70
20091;DHT22;10205;49.678;6.560;2023-08-06T00:53:49;21.00;66.60
20091;DHT22;10205;49.678;6.560;2023-08-06T00:56:17;20.90;66.70
20091;DHT22;10205;49.678;6.560;2023-08-06T00:58:45;20.90;66.70
20091;DHT22;10205;49.678;6.560;2023-08-06T01:01:16;20.90;66.70
20091;DHT22;10205;49.678;6.560;2023-08-06T01:03:44;20.90;67.00
20091;DHT22;10205;49.678;6.560;2023-08-06T01:06:11;20.80;66.70
20091;DHT22;10205;49.678;6.560;2023-08-06T01:08:46;20.80;66.80
20091;DHT22;10205;49.678;6.560;2023-08-06T01:11:26;20.80;67.50
20091;DHT22;10205;49.678;6.560;2023-08-06T01:14:05;20.70;67.20
20091;DHT22;10205;49.678;6.560;2023-08-06T01:16:37;20.70;67.30
20091;DHT22;10205;49.678;6.560;2023-08-06T01:19:16;20.70;67.20
20091;DHT22;10205;49.678;6.560;2023-08-06T01:21:45;20.60;67.50
20091;DHT22;10205;49.678;6.560;2023-08-06T01:24:12;20.60;67.30
20091;DHT22;10205;49.678;6.560;2023-08-06T01:26:44;20.60;67.30
20091;DHT22;10205;49.678;6.560;2023-08-06T01:29:21;20.60;67.50
20091;DHT22;10205;49.678;6.560;2023-08-06T01:31:53;20.50;67.70
20091;DHT22;10205;49.678;6.560;2023-08-06T01:34:25;20.50;67.50
20091;DHT22;10205;49.678;6.560;2023-08-06T01:36:59;20.50;67.40
20091;DHT22;10205;49.678;6.560;2023-08-06T01:39:28;20.50;67.70
20091;DHT22;10205;49.678;6.560;2023-08-06T01:41:56;20.50;67.80
20091;DHT22;10205;49.678;6.560;2023-08-06T01:44:23;20.40;67.80
20091;DHT22;10205;49.678;6.560;2023-08-06T01:46:51;20.40;68.00
20091;DHT22;10205;49.678;6.560;2023-08-06T01:49:18;20.40;67.90
20091;DHT22;10205;49.678;6.560;2023-08-06T01:51:46;20.40;67.90
20091;DHT22;10205;49.678;6.560;2023-08-06T01:54:14;20.40;68.00
20091;DHT22;10205;49.678;6.560;2023-08-06T01:56:42;20.30;68.30
20091;DHT22;10205;49.678;6.560;2023-08-06T01:59:10;20.30;68.20
20091;DHT22;10205;49.678;6.560;2023-08-06T02:01:37;20.30;68.20
20091;DHT22;10205;49.678;6.560;2023-08-06T02:04:05;20.30;68.20
20091;DHT22;10205;49.678;6.560;2023-08-06T02:06:32;20.20;68.30
20091;DHT22;10205;49.678;6.560;2023-08-06T02:09:00;20.20;68.30
20091;DHT22;10205;49.678;6.560;2023-08-06T02:11:29;20.20;68.20
20091;DHT22;10205;49.678;6.560;2023-08-06T02:13:56;20.20;68.50
20091;DHT22;10205;49.678;6.560;2023-08-06T02:16:23;20.20;68.50
20091;DHT22;10205;49.678;6.560;2023-08-06T02:18:51;20.10;68.50
20091;DHT22;10205;49.678;6.560;2023-08-06T02:21:19;20.20;68.60
20091;DHT22;10205;49.678;6.560;2023-08-06T02:23:46;20.10;68.60
20091;DHT22;10205;49.678;6.560;2023-08-06T02:26:13;20.10;68.60
20091;DHT22;10205;49.678;6.560;2023-08-06T02:28:42;20.10;68.50
20091;DHT22;10205;49.678;6.560;2023-08-06T02:31:10;20.10;68.70
20091;DHT22;10205;49.678;6.560;2023-08-06T02:33:38;20.10;68.60
20091;DHT22;10205;49.678;6.560;2023-08-06T02:36:05;20.10;68.60
20091;DHT22;10205;49.678;6.560;2023-08-06T02:38:33;20.00;68.50
20091;DHT22;10205;49.678;6.560;2023-08-06T02:41:03;20.00;68.60
20091;DHT22;10205;49.678;6.560;2023-08-06T02:43:32;20.00;68.90
20091;DHT22;10205;49.678;6.560;2023-08-06T02:46:01;20.10;69.00
20091;DHT22;10205;49.678;6.560;2023-08-06T02:48:29;20.00;69.00
20091;DHT22;10205;49.678;6.560;2023-08-06T02:50:57;20.00;68.90
20091;DHT22;10205;49.678;6.560;2023-08-06T02:53:26;20.00;68.90
20091;DHT22;10205;49.678;6.560;2023-08-06T02:55:54;20.00;69.00
20091;DHT22;10205;49.678;6.560;2023-08-06T02:58:21;20.00;69.30
20091;DHT22;10205;49.678;6.560;2023-08-06T03:01:01;20.00;69.00
20091;DHT22;10205;49.678;6.560;2023-08-06T03:03:29;19.90;69.30
20091;DHT22;10205;49.678;6.560;2023-08-06T03:05:58;19.90;68.90
20091;DHT22;10205;49.678;6.560;2023-08-06T03:08:26;19.90;69.10
20091;DHT22;10205;49.678;6.560;2023-08-06T03:10:53;19.90;69.20
20091;DHT22;10205;49.678;6.560;2023-08-06T03:13:21;19.90;69.30
20091;DHT22;10205;49.678;6.560;2023-08-06T03:15:55;19.80;69.20
20091;DHT22;10205;49.678;6.560;2023-08-06T03:18:25;19.80;69.70
20091;DHT22;10205;49.678;6.560;2023-08-06T03:20:53;19.80;69.50
20091;DHT22;10205;49.678;6.560;2023-08-06T03:23:19;19.80;69.30
20091;DHT22;10205;49.678;6.560;2023-08-06T03:25:47;19.80;69.40
20091;DHT22;10205;49.678;6.560;2023-08-06T03:28:15;19.80;69.40
20091;DHT22;10205;49.678;6.560;2023-08-06T03:30:42;19.80;69.50
20091;DHT22;10205;49.678;6.560;2023-08-06T03:33:10;19.70;69.40
20091;DHT22;10205;49.678;6.560;2023-08-06T03:35:39;19.70;69.50
20091;DHT22;10205;49.678;6.560;2023-08-06T03:38:07;19.70;69.80
20091;DHT22;10205;49.678;6.560;2023-08-06T03:40:35;19.70;69.60
20091;DHT22;10205;49.678;6.560;2023-08-06T03:43:02;19.70;69.60
20091;DHT22;10205;49.678;6.560;2023-08-06T03:45:32;19.70;69.60
20091;DHT22;10205;49.678;6.560;2023-08-06T03:47:59;19.70;69.70
20091;DHT22;10205;49.678;6.560;2023-08-06T03:50:27;19.70;69.60
20091;DHT22;10205;49.678;6.560;2023-08-06T03:52:56;19.70;69.70
20091;DHT22;10205;49.678;6.560;2023-08-06T03:55:27;19.70;69.90
20091;DHT22;10205;49.678;6.560;2023-08-06T03:58:03;19.60;69.90
20091;DHT22;10205;49.678;6.560;2023-08-06T04:00:30;19.60;69.70
20091;DHT22;10205;49.678;6.560;2023-08-06T04:02:58;19.60;69.80
20091;DHT22;10205;49.678;6.560;2023-08-06T04:05:25;19.60;69.80
20091;DHT22;10205;49.678;6.560;2023-08-06T04:07:52;19.60;69.80
20091;DHT22;10205;49.678;6.560;2023-08-06T04:10:21;19.60;69.90
20091;DHT22;10205;49.678;6.560;2023-08-06T04:12:49;19.60;70.00
20091;DHT22;10205;49.678;6.560;2023-08-06T04:15:16;19.60;69.90
20091;DHT22;10205;49.678;6.560;2023-08-06T04:17:44;19.60;69.80
20091;DHT22;10205;49.678;6.560;2023-08-06T04:20:13;19.60;69.90
20091;DHT22;10205;49.678;6.560;2023-08-06T04:22:40;19.60;69.90
20091;DHT22;10205;49.678;6.560;2023-08-06T04:25:09;19.60;69.90
20091;DHT22;10205;49.678;6.560;2023-08-06T04:27:38;19.60;70.00
20091;DHT22;10205;49.678;6.560;2023-08-06T04:30:08;19.60;70.10
20091;DHT22;10205;49.678;6.560;2023-08-06T04:32:37;19.50;70.00
20091;DHT22;10205;49.678;6.560;2023-08-06T04:35:06;19.60;70.10
20091;DHT22;10205;49.678;6.560;2023-08-06T04:37:33;19.50;70.00
20091;DHT22;10205;49.678;6.560;2023-08-06T04:40:01;19.60;70.00
20091;DHT22;10205;49.678;6.560;2023-08-06T04:42:29;19.60;70.00
20091;DHT22;10205;49.678;6.560;2023-08-06T04:44:57;19.60;70.00
20091;DHT22;10205;49.678;6.560;2023-08-06T04:47:25;19.60;70.10
20091;DHT22;10205;49.678;6.560;2023-08-06T04:49:52;19.60;70.00
20091;DHT22;10205;49.678;6.560;2023-08-06T04:52:20;19.60;69.90
20091;DHT22;10205;49.678;6.560;2023-08-06T04:54:47;19.60;69.90
20091;DHT22;10205;49.678;6.560;2023-08-06T04:57:14;19.60;69.90
20091;DHT22;10205;49.678;6.560;2023-08-06T04:59:42;19.60;69.90
20091;DHT22;10205;49.678;6.560;2023-08-06T05:02:11;19.60;69.90
20091;DHT22;10205;49.678;6.560;2023-08-06T05:04:38;19.60;69.90
20091;DHT22;10205;49.678;6.560;2023-08-06T05:07:06;19.60;69.90
20091;DHT22;10205;49.678;6.560;2023-08-06T05:09:33;19.60;69.90
20091;DHT22;10205;49.678;6.560;2023-08-06T05:12:01;19.60;69.90
20091;DHT22;10205;49.678;6.560;2023-08-06T05:14:29;19.60;69.80
20091;DHT22;10205;49.678;6.560;2023-08-06T05:16:56;19.60;69.90
20091;DHT22;10205;49.678;6.560;2023-08-06T05:19:29;19.60;69.90
20091;DHT22;10205;49.678;6.560;2023-08-06T05:21:57;19.60;69.90
20091;DHT22;10205;49.678;6.560;2023-08-06T05:24:24;19.60;69.90
20091;DHT22;10205;49.678;6.560;2023-08-06T05:26:52;19.60;69.80
20091;DHT22;10205;49.678;6.560;2023-08-06T05:29:19;19.60;69.80
20091;DHT22;10205;49.678;6.560;2023-08-06T05:31:47;19.60;69.80
20091;DHT22;10205;49.678;6.560;2023-08-06T05:34:14;19.60;69.80
20091;DHT22;10205;49.678;6.560;2023-08-06T05:36:43;19.60;69.80
20091;DHT22;10205;49.678;6.560;2023-08-06T05:39:11;19.60;69.90
20091;DHT22;10205;49.678;6.560;2023-08-06T05:41:38;19.60;69.90
20091;DHT22;10205;49.678;6.560;2023-08-06T05:44:05;19.60;69.80
20091;DHT22;10205;49.678;6.560;2023-08-06T05:46:33;19.60;69.80
20091;DHT22;10205;49.678;6.560;2023-08-06T05:49:00;19.60;69.90
20091;DHT22;10205;49.678;6.560;2023-08-06T05:51:28;19.60;69.90
20091;DHT22;10205;49.678;6.560;2023-08-06T05:53:57;19.60;69.90
20091;DHT22;10205;49.678;6.560;2023-08-06T05:56:24;19.60;70.00
20091;DHT22;10205;49.678;6.560;2023-08-06T05:58:52;19.60;70.00
20091;DHT22;10205;49.678;6.560;2023-08-06T06:01:21;19.60;70.00
20091;DHT22;10205;49.678;6.560;2023-08-06T06:03:49;19.60;70.10
20091;DHT22;10205;49.678;6.560;2023-08-06T06:06:16;19.60;70.00
20091;DHT22;10205;49.678;6.560;2023-08-06T06:08:45;19.60;70.00
20091;DHT22;10205;49.678;6.560;2023-08-06T06:11:14;19.50;70.00
20091;DHT22;10205;49.678;6.560;2023-08-06T06:13:42;19.50;70.10
20091;DHT22;10205;49.678;6.560;2023-08-06T06:16:09;19.50;70.00
20091;DHT22;10205;49.678;6.560;2023-08-06T06:18:37;19.50;70.00
20091;DHT22;10205;49.678;6.560;2023-08-06T06:21:04;19.50;70.10
20091;DHT22;10205;49.678;6.560;2023-08-06T06:23:32;19.50;70.10
20091;DHT22;10205;49.678;6.560;2023-08-06T06:25:59;19.50;70.10
20091;DHT22;10205;49.678;6.560;2023-08-06T06:28:29;19.50;70.10
20091;DHT22;10205;49.678;6.560;2023-08-06T06:31:00;19.50;70.30
20091;DHT22;10205;49.678;6.560;2023-08-06T06:33:29;19.50;70.40
20091;DHT22;10205;49.678;6.560;2023-08-06T06:35:56;19.50;70.30
20091;DHT22;10205;49.678;6.560;2023-08-06T06:38:24;19.50;70.30
20091;DHT22;10205;49.678;6.560;2023-08-06T06:40:55;19.50;70.30
20091;DHT22;10205;49.678;6.560;2023-08-06T06:43:23;19.50;70.40
20091;DHT22;10205;49.678;6.560;2023-08-06T06:45:56;19.50;70.30
20091;DHT22;10205;49.678;6.560;2023-08-06T06:48:26;19.50;70.30
20091;DHT22;10205;49.678;6.560;2023-08-06T06:50:54;19.50;70.10
20091;DHT22;10205;49.678;6.560;2023-08-06T06:53:22;19.50;70.10
20091;DHT22;10205;49.678;6.560;2023-08-06T06:55:53;19.50;70.20
20091;DHT22;10205;49.678;6.560;2023-08-06T06:58:21;19.50;70.30
20091;DHT22;10205;49.678;6.560;2023-08-06T07:00:48;19.50;70.20
20091;DHT22;10205;49.678;6.560;2023-08-06T07:03:19;19.50;70.30
20091;DHT22;10205;49.678;6.560;2023-08-06T07:05:46;19.50;70.30
20091;DHT22;10205;49.678;6.560;2023-08-06T07:08:14;19.50;70.30
20091;DHT22;10205;49.678;6.560;2023-08-06T07:10:42;19.50;70.30
20091;DHT22;10205;49.678;6.560;2023-08-06T07:13:10;19.50;70.30
20091;DHT22;10205;49.678;6.560;2023-08-06T07:15:37;19.50;70.30
20091;DHT22;10205;49.678;6.560;2023-08-06T07:18:05;19.60;70.30
20091;DHT22;10205;49.678;6.560;2023-08-06T07:20:34;19.60;70.10
20091;DHT22;10205;49.678;6.560;2023-08-06T07:23:01;19.60;70.30
20091;DHT22;10205;49.678;6.560;2023-08-06T07:25:30;19.60;70.30
20091;DHT22;10205;49.678;6.560;2023-08-06T07:27:59;19.50;70.30
20091;DHT22;10205;49.678;6.560;2023-08-06T07:30:27;19.50;70.30
20091;DHT22;10205;49.678;6.560;2023-08-06T07:32:55;19.50;70.40
20091;DHT22;10205;49.678;6.560;2023-08-06T07:35:22;19.60;70.40
20091;DHT22;10205;49.678;6.560;2023-08-06T07:37:53;19.50;70.30
20091;DHT22;10205;49.678;6.560;2023-08-06T07:40:20;19.50;70.40
20091;DHT22;10205;49.678;6.560;2023-08-06T07:42:48;19.60;70.30
20091;DHT22;10205;49.678;6.560;2023-08-06T07:45:16;19.60;70.20
20091;DHT22;10205;49.678;6.560;2023-08-06T07:47:43;19.60;70.10
20091;DHT22;10205;49.678;6.560;2023-08-06T07:50:11;19.60;70.00
20091;DHT22;10205;49.678;6.560;2023-08-06T07:52:39;19.60;70.10
20091;DHT22;10205;49.678;6.560;2023-08-06T07:55:08;19.60;70.10
20091;DHT22;10205;49.678;6.560;2023-08-06T07:57:36;19.50;70.10
20091;DHT22;10205;49.678;6.560;2023-08-06T08:00:05;19.50;70.10
20091;DHT22;10205;49.678;6.560;2023-08-06T08:02:33;19.50;70.10
20091;DHT22;10205;49.678;6.560;2023-08-06T08:05:00;19.50;70.20
20091;DHT22;10205;49.678;6.560;2023-08-06T08:07:27;19.50;70.30
20091;DHT22;10205;49.678;6.560;2023-08-06T08:09:56;19.50;70.40
20091;DHT22;10205;49.678;6.560;2023-08-06T08:12:25;19.50;70.30
20091;DHT22;10205;49.678;6.560;2023-08-06T08:14:53;19.50;70.50
20091;DHT22;10205;49.678;6.560;2023-08-06T08:17:24;19.40;70.30
20091;DHT22;10205;49.678;6.560;2023-08-06T08:19:52;19.40;70.10
20091;DHT22;10205;49.678;6.560;2023-08-06T08:22:19;19.40;70.20
20091;DHT22;10205;49.678;6.560;2023-08-06T08:24:46;19.40;70.40
20091;DHT22;10205;49.678;6.560;2023-08-06T08:27:14;19.40;70.40
20091;DHT22;10205;49.678;6.560;2023-08-06T08:29:43;19.40;70.40
20091;DHT22;10205;49.678;6.560;2023-08-06T08:32:10;19.40;70.60
20091;DHT22;10205;49.678;6.560;2023-08-06T08:34:38;19.40;70.60
20091;DHT22;10205;49.678;6.560;2023-08-06T08:37:06;19.40;70.50
20091;DHT22;10205;49.678;6.560;2023-08-06T08:39:33;19.40;70.50
20091;DHT22;10205;49.678;6.560;2023-08-06T08:42:01;19.40;70.70
20091;DHT22;10205;49.678;6.560;2023-08-06T08:44:30;19.40;70.70
20091;DHT22;10205;49.678;6.560;2023-08-06T08:47:00;19.30;70.70
20091;DHT22;10205;49.678;6.560;2023-08-06T08:49:29;19.40;70.60
20091;DHT22;10205;49.678;6.560;2023-08-06T08:51:59;19.30;70.70
20091;DHT22;10205;49.678;6.560;2023-08-06T08:54:31;19.40;70.90
20091;DHT22;10205;49.678;6.560;2023-08-06T08:57:00;19.40;70.80
20091;DHT22;10205;49.678;6.560;2023-08-06T08:59:28;19.40;70.70
20091;DHT22;10205;49.678;6.560;2023-08-06T09:01:57;19.40;70.70
20091;DHT22;10205;49.678;6.560;2023-08-06T09:04:27;19.40;70.70
20091;DHT22;10205;49.678;6.560;2023-08-06T09:06:58;19.40;70.50
20091;DHT22;10205;49.678;6.560;2023-08-06T09:09:30;19.40;70.50
20091;DHT22;10205;49.678;6.560;2023-08-06T09:12:01;19.40;70.50
20091;DHT22;10205;49.678;6.560;2023-08-06T09:14:33;19.30;70.40
20091;DHT22;10205;49.678;6.560;2023-08-06T09:17:02;19.30;70.10
20091;DHT22;10205;49.678;6.560;2023-08-06T09:19:32;19.30;69.90
20091;DHT22;10205;49.678;6.560;2023-08-06T09:21:59;19.30;69.20
20091;DHT22;10205;49.678;6.560;2023-08-06T09:24:28;19.30;69.80
20091;DHT22;10205;49.678;6.560;2023-08-06T09:26:55;19.20;70.00
20091;DHT22;10205;49.678;6.560;2023-08-06T09:29:23;19.20;69.90
20091;DHT22;10205;49.678;6.560;2023-08-06T09:31:51;19.20;69.50
20091;DHT22;10205;49.678;6.560;2023-08-06T09:34:22;19.20;69.40
20091;DHT22;10205;49.678;6.560;2023-08-06T09:36:50;19.20;68.80
20091;DHT22;10205;49.678;6.560;2023-08-06T09:39:20;19.20;69.10
20091;DHT22;10205;49.678;6.560;2023-08-06T09:41:48;19.20;69.60
20091;DHT22;10205;49.678;6.560;2023-08-06T09:44:24;19.20;69.70
20091;DHT22;10205;49.678;6.560;2023-08-06T09:46:54;19.20;69.40
20091;DHT22;10205;49.678;6.560;2023-08-06T09:49:26;19.20;69.40
20091;DHT22;10205;49.678;6.560;2023-08-06T09:51:54;19.20;69.60
20091;DHT22;10205;49.678;6.560;2023-08-06T09:54:24;19.20;69.60
20091;DHT22;10205;49.678;6.560;2023-08-06T09:56:53;19.30;69.70
20091;DHT22;10205;49.678;6.560;2023-08-06T09:59:21;19.30;69.70
20091;DHT22;10205;49.678;6.560;2023-08-06T10:01:50;19.30;69.50
20091;DHT22;10205;49.678;6.560;2023-08-06T10:04:18;19.30;69.10
20091;DHT22;10205;49.678;6.560;2023-08-06T10:06:48;19.30;69.40
20091;DHT22;10205;49.678;6.560;2023-08-06T10:09:16;19.30;69.70
20091;DHT22;10205;49.678;6.560;2023-08-06T10:11:50;19.30;69.80
20091;DHT22;10205;49.678;6.560;2023-08-06T10:14:23;19.30;69.50
20091;DHT22;10205;49.678;6.560;2023-08-06T10:16:54;19.30;69.50
20091;DHT22;10205;49.678;6.560;2023-08-06T10:19:25;19.40;69.50
20091;DHT22;10205;49.678;6.560;2023-08-06T10:22:11;19.40;69.80
20091;DHT22;10205;49.678;6.560;2023-08-06T10:24:48;19.40;69.90
20091;DHT22;10205;49.678;6.560;2023-08-06T10:27:23;19.40;70.10
20091;DHT22;10205;49.678;6.560;2023-08-06T10:30:07;19.40;70.00
20091;DHT22;10205;49.678;6.560;2023-08-06T10:32:49;19.40;70.00
20091;DHT22;10205;49.678;6.560;2023-08-06T10:35:35;19.40;70.10
20091;DHT22;10205;49.678;6.560;2023-08-06T10:38:07;19.40;70.60
20091;DHT22;10205;49.678;6.560;2023-08-06T10:40:36;19.50;70.30
20091;DHT22;10205;49.678;6.560;2023-08-06T10:43:06;19.50;70.30
20091;DHT22;10205;49.678;6.560;2023-08-06T10:45:36;19.50;70.30
20091;DHT22;10205;49.678;6.560;2023-08-06T10:48:05;19.50;70.40
20091;DHT22;10205;49.678;6.560;2023-08-06T10:50:33;19.50;70.40
20091;DHT22;10205;49.678;6.560;2023-08-06T10:53:05;19.50;70.50
20091;DHT22;10205;49.678;6.560;2023-08-06T10:55:34;19.50;70.50
20091;DHT22;10205;49.678;6.560;2023-08-06T10:58:04;19.60;70.60
20091;DHT22;10205;49.678;6.560;2023-08-06T11:00:31;19.60;70.20
20091;DHT22;10205;49.678;6.560;2023-08-06T11:02:58;19.60;70.10
20091;DHT22;10205;49.678;6.560;2023-08-06T11:05:26;19.60;70.00
20091;DHT22;10205;49.678;6.560;2023-08-06T11:07:54;19.60;70.10
20091;DHT22;10205;49.678;6.560;2023-08-06T11:10:23;19.70;70.10
20091;DHT22;10205;49.678;6.560;2023-08-06T11:12:51;19.70;70.00
20091;DHT22;10205;49.678;6.560;2023-08-06T11:15:20;19.70;69.40
20091;DHT22;10205;49.678;6.560;2023-08-06T11:17:48;19.60;69.60
20091;DHT22;10205;49.678;6.560;2023-08-06T11:20:16;19.70;69.00
20091;DHT22;10205;49.678;6.560;2023-08-06T11:22:43;19.60;69.10
20091;DHT22;10205;49.678;6.560;2023-08-06T11:25:14;19.60;69.20
20091;DHT22;10205;49.678;6.560;2023-08-06T11:27:44;19.70;69.00
20091;DHT22;10205;49.678;6.560;2023-08-06T11:30:11;19.70;69.40
20091;DHT22;10205;49.678;6.560;2023-08-06T11:32:45;19.70;69.50
20091;DHT22;10205;49.678;6.560;2023-08-06T11:35:13;19.70;68.70
20091;DHT22;10205;49.678;6.560;2023-08-06T11:37:44;19.70;69.20
20091;DHT22;10205;49.678;6.560;2023-08-06T11:40:14;19.70;68.40
20091;DHT22;10205;49.678;6.560;2023-08-06T11:42:45;19.70;68.40
20091;DHT22;10205;49.678;6.560;2023-08-06T11:45:13;19.80;68.90
20091;DHT22;10205;49.678;6.560;2023-08-06T11:47:41;19.80;69.00
20091;DHT22;10205;49.678;6.560;2023-08-06T11:50:09;19.90;68.70
20091;DHT22;10205;49.678;6.560;2023-08-06T11:52:53;19.90;68.50
20091;DHT22;10205;49.678;6.560;2023-08-06T11:55:23;20.00;68.70
20091;DHT22;10205;49.678;6.560;2023-08-06T11:57:53;19.90;68.60
20091;DHT22;10205;49.678;6.560;2023-08-06T12:00:24;20.00;67.50
20091;DHT22;10205;49.678;6.560;2023-08-06T12:02:52;20.00;67.60
20091;DHT22;10205;49.678;6.560;2023-08-06T12:05:21;20.10;67.20
20091;DHT22;10205;49.678;6.560;2023-08-06T12:07:51;20.10;67.70
20091;DHT22;10205;49.678;6.560;2023-08-06T12:10:20;20.10;67.70
20091;DHT22;10205;49.678;6.560;2023-08-06T12:12:48;20.20;67.70
20091;DHT22;10205;49.678;6.560;2023-08-06T12:15:17;20.20;67.70
20091;DHT22;10205;49.678;6.560;2023-08-06T12:17:45;20.30;67.70
20091;DHT22;10205;49.678;6.560;2023-08-06T12:20:13;20.40;68.00
20091;DHT22;10205;49.678;6.560;2023-08-06T12:22:40;20.40;67.80
20091;DHT22;10205;49.678;6.560;2023-08-06T12:25:09;20.40;67.40
20091;DHT22;10205;49.678;6.560;2023-08-06T12:27:39;20.50;67.40
20091;DHT22;10205;49.678;6.560;2023-08-06T12:30:08;20.60;67.10
20091;DHT22;10205;49.678;6.560;2023-08-06T12:32:39;20.60;66.20
20091;DHT22;10205;49.678;6.560;2023-08-06T12:35:08;20.60;66.50
20091;DHT22;10205;49.678;6.560;2023-08-06T12:37:39;20.70;66.80
20091;DHT22;10205;49.678;6.560;2023-08-06T12:40:10;20.70;66.40
20091;DHT22;10205;49.678;6.560;2023-08-06T12:42:37;20.70;66.70
20091;DHT22;10205;49.678;6.560;2023-08-06T12:45:05;20.80;66.60
20091;DHT22;10205;49.678;6.560;2023-08-06T12:47:33;20.80;66.70
20091;DHT22;10205;49.678;6.560;2023-08-06T12:50:02;20.80;66.80
20091;DHT22;10205;49.678;6.560;2023-08-06T12:52:30;20.80;66.70
20091;DHT22;10205;49.678;6.560;2023-08-06T12:54:58;20.90;66.10
20091;DHT22;10205;49.678;6.560;2023-08-06T12:57:25;20.80;66.30
20091;DHT22;10205;49.678;6.560;2023-08-06T12:59:55;20.90;66.40
20091;DHT22;10205;49.678;6.560;2023-08-06T13:02:22;20.90;66.40
20091;DHT22;10205;49.678;6.560;2023-08-06T13:04:51;20.90;65.70
20091;DHT22;10205;49.678;6.560;2023-08-06T13:07:20;20.90;66.00
20091;DHT22;10205;49.678;6.560;2023-08-06T13:09:47;20.90;66.10
20091;DHT22;10205;49.678;6.560;2023-08-06T13:12:15;21.00;65.90
20091;DHT22;10205;49.678;6.560;2023-08-06T13:14:44;21.00;66.00
20091;DHT22;10205;49.678;6.560;2023-08-06T13:17:12;21.00;65.60
20091;DHT22;10205;49.678;6.560;2023-08-06T13:19:39;20.90;65.70
20091;DHT22;10205;49.678;6.560;2023-08-06T13:22:06;21.00;65.70
20091;DHT22;10205;49.678;6.560;2023-08-06T13:24:36;20.90;65.90
20091;DHT22;10205;49.678;6.560;2023-08-06T13:27:03;20.90;66.00
20091;DHT22;10205;49.678;6.560;2023-08-06T13:29:32;20.90;65.90
20091;DHT22;10205;49.678;6.560;2023-08-06T13:31:59;20.90;65.90
20091;DHT22;10205;49.678;6.560;2023-08-06T13:34:27;20.90;65.70
20091;DHT22;10205;49.678;6.560;2023-08-06T13:36:55;20.90;65.50
20091;DHT22;10205;49.678;6.560;2023-08-06T13:39:22;21.00;65.60
20091;DHT22;10205;49.678;6.560;2023-08-06T13:41:51;21.00;65.30
20091;DHT22;10205;49.678;6.560;2023-08-06T13:44:18;20.90;65.60
20091;DHT22;10205;49.678;6.560;2023-08-06T13:46:45;20.90;65.90
20091;DHT22;10205;49.678;6.560;2023-08-06T13:49:13;20.90;66.10
20091;DHT22;10205;49.678;6.560;2023-08-06T13:51:40;20.90;65.90
20091;DHT22;10205;49.678;6.560;2023-08-06T13:54:08;20.90;66.00
20091;DHT22;10205;49.678;6.560;2023-08-06T13:56:36;20.90;66.30
20091;DHT22;10205;49.678;6.560;2023-08-06T13:59:05;20.90;66.20
20091;DHT22;10205;49.678;6.560;2023-08-06T14:01:33;20.90;66.10
20091;DHT22;10205;49.678;6.560;2023-08-06T14:04:01;20.90;65.90
20091;DHT22;10205;49.678;6.560;2023-08-06T14:06:28;20.90;66.00
20091;DHT22;10205;49.678;6.560;2023-08-06T14:08:57;20.90;66.10
20091;DHT22;10205;49.678;6.560;2023-08-06T14:11:25;20.90;65.90
20091;DHT22;10205;49.678;6.560;2023-08-06T14:13:58;20.90;65.00
20091;DHT22;10205;49.678;6.560;2023-08-06T14:16:27;20.90;65.70
20091;DHT22;10205;49.678;6.560;2023-08-06T14:18:55;20.90;65.80
20091;DHT22;10205;49.678;6.560;2023-08-06T14:21:23;20.90;65.80
20091;DHT22;10205;49.678;6.560;2023-08-06T14:23:52;20.90;66.10
20091;DHT22;10205;49.678;6.560;2023-08-06T14:26:19;20.90;66.30
20091;DHT22;10205;49.678;6.560;2023-08-06T14:28:47;20.80;66.40
20091;DHT22;10205;49.678;6.560;2023-08-06T14:31:14;20.90;65.90
20091;DHT22;10205;49.678;6.560;2023-08-06T14:33:43;20.90;66.30
20091;DHT22;10205;49.678;6.560;2023-08-06T14:36:11;20.90;66.40
20091;DHT22;10205;49.678;6.560;2023-08-06T14:38:39;20.90;66.10
20091;DHT22;10205;49.678;6.560;2023-08-06T14:41:07;21.00;66.00
20091;DHT22;10205;49.678;6.560;2023-08-06T14:43:35;20.90;65.50
20091;DHT22;10205;49.678;6.560;2023-08-06T14:46:02;21.00;65.20
20091;DHT22;10205;49.678;6.560;2023-08-06T14:48:30;21.00;65.20
20091;DHT22;10205;49.678;6.560;2023-08-06T14:51:00;21.00;65.40
20091;DHT22;10205;49.678;6.560;2023-08-06T14:53:28;21.00;65.00
20091;DHT22;10205;49.678;6.560;2023-08-06T14:55:55;21.00;64.20
20091;DHT22;10205;49.678;6.560;2023-08-06T14:58:23;20.90;64.20
20091;DHT22;10205;49.678;6.560;2023-08-06T15:00:50;20.90;64.60
20091;DHT22;10205;49.678;6.560;2023-08-06T15:03:17;20.90;64.30
20091;DHT22;10205;49.678;6.560;2023-08-06T15:05:47;20.90;64.30
20091;DHT22;10205;49.678;6.560;2023-08-06T15:08:17;20.90;64.40
20091;DHT22;10205;49.678;6.560;2023-08-06T15:10:50;20.90;65.00
20091;DHT22;10205;49.678;6.560;2023-08-06T15:13:18;20.90;64.80
20091;DHT22;10205;49.678;6.560;2023-08-06T15:15:47;20.90;65.00
20091;DHT22;10205;49.678;6.560;2023-08-06T15:18:14;20.90;64.70
20091;DHT22;10205;49.678;6.560;2023-08-06T15:20:42;20.90;65.30
20091;DHT22;10205;49.678;6.560;2023-08-06T15:23:10;20.90;65.20
20091;DHT22;10205;49.678;6.560;2023-08-06T15:25:39;20.90;64.80
20091;DHT22;10205;49.678;6.560;2023-08-06T15:28:06;21.00;64.80
20091;DHT22;10205;49.678;6.560;2023-08-06T15:30:34;21.00;64.70
20091;DHT22;10205;49.678;6.560;2023-08-06T15:33:02;20.90;64.60
20091;DHT22;10205;49.678;6.560;2023-08-06T15:35:29;20.90;64.70
20091;DHT22;10205;49.678;6.560;2023-08-06T15:37:57;20.90;65.20
20091;DHT22;10205;49.678;6.560;2023-08-06T15:40:24;20.90;65.10